createdAt,value
2022-11-06T00:09:38.306Z,8.90
2022-11-06T00:19:59.751Z,8.87
2022-11-06T00:30:21.207Z,8.87
2022-11-06T00:40:42.622Z,8.85
2022-11-06T00:51:04.514Z,8.83
2022-11-06T01:01:27.298Z,8.87
2022-11-06T01:22:36.241Z,8.88
2022-11-06T01:32:57.651Z,8.95
2022-11-06T01:43:23.428Z,8.99
2022-11-06T01:53:45.509Z,9.02
2022-11-06T02:04:25.411Z,9.11
2022-11-06T02:15:23.126Z,9.07
2022-11-06T02:25:59.735Z,9.13
2022-11-06T02:36:28.991Z,9.05
2022-11-06T02:46:57.232Z,8.99
2022-11-06T02:57:20.621Z,8.99
2022-11-06T03:07:50.296Z,8.90
2022-11-06T03:18:35.471Z,8.88
2022-11-06T03:29:12.550Z,8.86
2022-11-06T03:39:39.992Z,8.86
2022-11-06T03:50:16.803Z,8.88
2022-11-06T04:00:41.942Z,8.92
2022-11-06T04:11:24.998Z,8.87
2022-11-06T04:21:57.255Z,8.66
2022-11-06T04:32:26.765Z,8.56
2022-11-06T04:43:08.004Z,8.61
2022-11-06T04:53:31.784Z,8.67
2022-11-06T05:03:53.199Z,8.71
2022-11-06T05:14:14.701Z,8.60
2022-11-06T05:24:36.142Z,8.49
2022-11-06T05:34:57.569Z,8.52
2022-11-06T05:45:19.049Z,8.42
2022-11-06T05:55:40.535Z,8.39
2022-11-06T06:06:01.947Z,8.46
2022-11-06T06:16:23.394Z,8.53
2022-11-06T06:26:45.016Z,8.48
2022-11-06T06:37:06.469Z,8.49
2022-11-06T06:47:27.891Z,8.43
2022-11-06T06:57:55.059Z,8.38
2022-11-06T07:08:16.680Z,8.27
2022-11-06T07:18:39.610Z,8.30
2022-11-06T07:29:01.021Z,8.39
2022-11-06T07:39:22.472Z,8.46
2022-11-06T07:49:49.692Z,8.70
2022-11-06T08:00:13.408Z,8.91
2022-11-06T08:10:37.679Z,8.98
2022-11-06T08:20:59.552Z,8.99
2022-11-06T08:31:21.130Z,9.06
2022-11-06T08:41:42.878Z,9.23
2022-11-06T08:52:04.349Z,9.37
2022-11-06T09:02:25.887Z,9.45
2022-11-06T09:12:47.343Z,9.58
2022-11-06T09:23:10.579Z,9.73
2022-11-06T09:33:32.348Z,9.95
2022-11-06T09:44:17.572Z,10.11
2022-11-06T09:54:50.744Z,10.35
2022-11-06T10:05:47.713Z,10.44
2022-11-06T10:16:36.689Z,10.52
2022-11-06T10:26:58.261Z,10.56
2022-11-06T10:37:26.147Z,10.59
2022-11-06T10:47:54.385Z,10.64
2022-11-06T10:58:22.459Z,10.64
2022-11-06T11:08:49.594Z,10.84
2022-11-06T11:19:36.533Z,11.25
2022-11-06T11:29:58.308Z,11.49
2022-11-06T11:40:36.364Z,11.54
2022-11-06T11:50:58.035Z,11.68
2022-11-06T12:01:31.449Z,11.69
2022-11-06T12:11:55.579Z,11.71
2022-11-06T12:22:33.543Z,11.69
2022-11-06T12:33:27.336Z,11.73
2022-11-06T12:44:02.016Z,11.75
2022-11-06T12:54:38.775Z,11.82
2022-11-06T13:05:03.200Z,11.84
2022-11-06T13:15:36.716Z,11.88
2022-11-06T13:26:26.201Z,12.02
2022-11-06T13:36:48.660Z,12.16
2022-11-06T13:47:20.072Z,12.22
2022-11-06T13:58:06.162Z,12.23
2022-11-06T14:08:30.062Z,12.18
2022-11-06T14:18:56.544Z,12.16
2022-11-06T14:29:27.239Z,12.06
2022-11-06T14:39:54.807Z,11.90
2022-11-06T14:50:19.373Z,11.81
2022-11-06T15:01:10.073Z,11.74
2022-11-06T15:11:34.980Z,11.67
2022-11-06T15:22:05.287Z,11.55
2022-11-06T15:32:30.250Z,11.46
2022-11-06T15:42:52.024Z,11.31
2022-11-06T15:53:13.657Z,11.21
2022-11-06T16:03:53.959Z,11.18
2022-11-06T16:14:15.639Z,11.19
2022-11-06T16:24:52.235Z,11.13
2022-11-06T16:35:31.803Z,11.00
2022-11-06T16:45:56.019Z,10.92
2022-11-06T16:56:23.467Z,10.84
2022-11-06T17:06:45.321Z,10.80
2022-11-06T17:17:06.704Z,10.71
2022-11-06T17:27:28.116Z,10.72
2022-11-06T17:37:49.551Z,10.64
2022-11-06T17:48:11.130Z,10.61
2022-11-06T17:58:33.690Z,10.58
2022-11-06T18:08:59.568Z,10.52
2022-11-06T18:19:23.319Z,10.46
2022-11-06T18:29:44.848Z,10.27
2022-11-06T18:40:06.890Z,10.01
2022-11-06T18:50:28.454Z,9.78
2022-11-06T19:00:49.900Z,9.54
2022-11-06T19:11:14.929Z,9.26
2022-11-06T19:21:36.438Z,9.08
2022-11-06T19:32:01.898Z,8.86
2022-11-06T19:42:23.315Z,8.66
2022-11-06T19:52:50.943Z,8.53
2022-11-06T20:03:16.758Z,8.45
2022-11-06T20:13:39.416Z,8.40
2022-11-06T20:24:00.899Z,8.34
2022-11-06T20:34:22.326Z,8.33
2022-11-06T20:44:43.849Z,8.37
2022-11-06T20:55:05.734Z,8.34
2022-11-06T21:05:27.154Z,8.32
2022-11-06T21:15:48.723Z,8.29
2022-11-06T21:26:15.906Z,8.32
2022-11-06T21:36:37.981Z,8.39
2022-11-06T21:46:59.504Z,8.50
2022-11-06T21:57:20.919Z,8.59
2022-11-06T22:07:42.342Z,8.70
2022-11-06T22:18:03.873Z,8.81
2022-11-06T22:28:25.364Z,8.92
2022-11-06T22:38:47.449Z,8.99
2022-11-06T22:49:09.092Z,9.07
2022-11-06T22:59:30.496Z,9.16
2022-11-06T23:09:51.917Z,9.25
2022-11-06T23:20:13.328Z,9.30
2022-11-06T23:30:34.806Z,9.34
2022-11-06T23:40:56.216Z,9.42
2022-11-06T23:51:18.164Z,9.42
